Time;durP1;ratioP1;P1;durP2;ratioP2;P2;SDS_P1;SDS_P2;PMS_P1;PMS_P2;Temp;Humidity;BMP_temperature;BMP_pressure;BME280_temperature;BME280_humidity;BME280_pressure;Samples;Min_cycle;Max_cycle;Signal;HPM_P1;HPM_P2
2024/01/01 00:00:04;;;;;;;5.72;1.90;;;;;;;5.21;100.00;98724.47;5064780;28;20044;-50
2024/01/01 00:02:32;;;;;;;13.90;4.20;;;;;;;5.21;100.00;98720.94;5065084;28;20862;-51
2024/01/01 00:05:00;;;;;;;10.02;3.40;;;;;;;5.20;100.00;98714.66;5068403;28;20387;-51
2024/01/01 00:07:29;;;;;;;2.72;1.48;;;;;;;5.19;100.00;98724.03;5059110;28;20650;-52
2024/01/01 00:09:56;;;;;;;6.93;3.17;;;;;;;5.17;100.00;98720.84;5059201;28;20525;-47
2024/01/01 00:12:24;;;;;;;5.53;2.10;;;;;;;5.16;100.00;98716.53;5064303;28;20067;-53
2024/01/01 00:14:51;;;;;;;7.65;2.45;;;;;;;5.16;100.00;98719.28;5067121;28;20528;-49
2024/01/01 00:17:18;;;;;;;8.15;2.05;;;;;;;5.13;100.00;98730.97;5067270;28;20055;-50
2024/01/01 00:19:46;;;;;;;5.53;2.45;;;;;;;5.11;100.00;98719.53;5064969;28;20506;-48
2024/01/01 00:22:15;;;;;;;7.60;2.58;;;;;;;5.11;100.00;98727.75;5065549;28;20063;-50
2024/01/01 00:24:43;;;;;;;6.15;2.47;;;;;;;5.08;100.00;98742.22;5065841;28;20383;-49
2024/01/01 00:27:10;;;;;;;5.40;2.40;;;;;;;5.06;100.00;98730.78;5061291;28;20048;-52
2024/01/01 00:29:37;;;;;;;6.60;2.17;;;;;;;5.04;100.00;98730.34;5067965;28;20040;-51
2024/01/01 00:32:06;;;;;;;9.38;2.22;;;;;;;5.02;100.00;98738.16;5065529;28;20040;-50
2024/01/01 00:34:33;;;;;;;6.20;1.98;;;;;;;5.01;100.00;98738.50;5062658;28;20041;-51
2024/01/01 00:37:02;;;;;;;4.72;1.92;;;;;;;4.99;100.00;98743.53;5066523;28;20409;-49
2024/01/01 00:39:29;;;;;;;4.88;2.03;;;;;;;4.99;100.00;98747.09;5063956;28;20037;-52
2024/01/01 00:41:57;;;;;;;8.77;2.58;;;;;;;4.98;100.00;98750.97;5067182;28;20139;-50
2024/01/01 00:44:26;;;;;;;7.25;1.98;;;;;;;4.97;100.00;98743.91;5063396;28;20131;-48
2024/01/01 00:46:53;;;;;;;6.70;2.17;;;;;;;4.95;100.00;98742.69;5066197;28;20058;-52
2024/01/01 00:49:21;;;;;;;11.50;3.47;;;;;;;4.93;100.00;98743.03;5062949;28;20045;-50
2024/01/01 00:51:48;;;;;;;7.85;3.17;;;;;;;4.91;100.00;98756.28;5057466;28;20851;-52
2024/01/01 00:54:16;;;;;;;5.38;2.30;;;;;;;4.88;100.00;98755.06;5061006;28;20044;-51
2024/01/01 00:56:43;;;;;;;10.10;2.53;;;;;;;4.89;100.00;98764.09;5057852;28;20048;-52
2024/01/01 00:59:11;;;;;;;4.88;1.50;;;;;;;4.88;100.00;98762.50;5063404;28;20076;-51
2024/01/01 01:01:39;;;;;;;8.98;2.30;;;;;;;4.86;100.00;98762.06;5055695;28;20044;-54
2024/01/01 01:04:07;;;;;;;8.40;2.15;;;;;;;4.85;100.00;98763.19;5067282;28;20053;-51
2024/01/01 01:06:34;;;;;;;9.43;2.75;;;;;;;4.84;100.00;98778.06;5067772;28;20044;-50
2024/01/01 01:09:03;;;;;;;6.20;1.73;;;;;;;4.83;100.00;98776.47;5067598;28;20051;-49
2024/01/01 01:11:33;;;;;;;13.57;1.70;;;;;;;4.81;100.00;98768.63;5067772;28;20048;-52
2024/01/01 01:14:00;;;;;;;6.72;1.88;;;;;;;4.81;100.00;98781.50;5068305;28;20045;-49
2024/01/01 01:16:28;;;;;;;7.32;1.48;;;;;;;4.80;100.00;98788.13;5063879;28;20044;-47
2024/01/01 01:18:55;;;;;;;5.85;1.58;;;;;;;4.76;100.00;98781.78;5067834;28;20055;-49
2024/01/01 01:21:22;;;;;;;4.97;1.35;;;;;;;4.76;100.00;98784.53;5062987;28;20048;-49
2024/01/01 01:23:50;;;;;;;11.65;1.42;;;;;;;4.75;100.00;98799.38;5067872;28;20107;-50
2024/01/01 01:26:17;;;;;;;3.60;1.15;;;;;;;4.74;100.00;98795.03;5067985;28;20787;-51
2024/01/01 01:28:44;;;;;;;2.88;1.05;;;;;;;4.74;100.00;98800.50;5067228;28;20102;-52
2024/01/01 01:31:12;;;;;;;4.53;1.35;;;;;;;4.72;100.00;98789.91;5067460;28;20506;-50
2024/01/01 01:33:39;;;;;;;6.85;1.33;;;;;;;4.72;100.00;98798.13;5068222;28;20043;-50
2024/01/01 01:36:08;;;;;;;7.50;1.15;;;;;;;4.70;100.00;98802.38;5063712;28;20037;-50
2024/01/01 01:38:38;;;;;;;7.95;1.63;;;;;;;4.69;100.00;98787.06;5058934;28;20057;-51
2024/01/01 01:41:05;;;;;;;1.45;1.00;;;;;;;4.67;100.00;98792.91;5066926;28;20063;-47
2024/01/01 01:43:33;;;;;;;2.25;1.17;;;;;;;4.65;100.00;98797.97;5067876;28;20119;-48
2024/01/01 01:46:02;;;;;;;9.65;1.33;;;;;;;4.62;100.00;98806.09;5066847;28;20056;-52
2024/01/01 01:48:29;;;;;;;6.43;0.95;;;;;;;4.60;100.00;98803.72;5049644;28;20048;-53
2024/01/01 01:50:57;;;;;;;2.92;1.10;;;;;;;4.60;100.00;98805.66;5067448;28;20064;-49
2024/01/01 01:53:26;;;;;;;4.97;0.98;;;;;;;4.59;100.00;98810.34;5067147;28;20052;-50
2024/01/01 01:55:56;;;;;;;3.72;1.20;;;;;;;4.56;100.00;98812.97;5067609;28;20840;-51
2024/01/01 01:58:24;;;;;;;6.07;1.08;;;;;;;4.54;100.00;98829.78;5049640;28;20056;-52
2024/01/01 02:00:54;;;;;;;3.67;1.33;;;;;;;4.52;100.00;98821.13;5066988;28;20051;-50
2024/01/01 02:03:22;;;;;;;4.55;0.93;;;;;;;4.53;100.00;98830.91;5066826;28;20400;-47
2024/01/01 02:05:50;;;;;;;4.80;1.23;;;;;;;4.51;100.00;98824.19;5066998;28;20802;-51
2024/01/01 02:08:18;;;;;;;2.83;1.10;;;;;;;4.49;100.00;98827.31;5067280;28;20056;-52
2024/01/01 02:10:45;;;;;;;1.75;0.80;;;;;;;4.48;100.00;98819.41;5067400;28;20055;-51
2024/01/01 02:13:23;;;;;;;0.70;0.52;;;;;;;4.47;100.00;98834.28;5065624;28;20048;-48
2024/01/01 02:15:51;;;;;;;2.15;0.93;;;;;;;4.47;100.00;98828.81;5067514;28;20071;-49
2024/01/01 02:18:18;;;;;;;2.03;0.77;;;;;;;4.45;100.00;98836.59;5066926;28;20040;-50
2024/01/01 02:20:46;;;;;;;3.13;0.98;;;;;;;4.44;100.00;98849.47;5066771;28;20506;-49
2024/01/01 02:23:18;;;;;;;1.50;0.68;;;;;;;4.44;100.00;98851.41;5067055;28;20398;-49
2024/01/01 02:25:46;;;;;;;10.45;2.38;;;;;;;4.42;100.00;98859.19;5067188;28;20051;-52
2024/01/01 02:28:14;;;;;;;6.57;0.68;;;;;;;4.41;100.00;98857.59;5067208;28;20402;-53
2024/01/01 02:30:42;;;;;;;1.67;0.80;;;;;;;4.40;100.00;98861.47;5067122;28;20049;-48
2024/01/01 02:33:09;;;;;;;4.18;1.27;;;;;;;4.40;100.00;98877.91;5066506;28;20056;-51
2024/01/01 02:35:37;;;;;;;1.52;0.60;;;;;;;4.41;100.00;98879.50;5067118;28;20604;-53
2024/01/01 02:38:07;;;;;;;5.68;1.77;;;;;;;4.39;100.00;98877.13;5066962;28;20051;-48
2024/01/01 02:40:36;;;;;;;7.70;0.75;;;;;;;4.39;100.00;98882.63;5066702;28;20055;-49
2024/01/01 02:43:04;;;;;;;2.53;0.82;;;;;;;4.37;100.00;98893.09;5064675;28;20044;-52
2024/01/01 02:45:32;;;;;;;3.85;0.70;;;;;;;4.37;100.00;98878.63;5054560;28;20064;-51
2024/01/01 02:48:00;;;;;;;4.07;1.02;;;;;;;4.37;100.00;98897.81;5066796;28;20049;-48
2024/01/01 02:50:29;;;;;;;2.75;0.70;;;;;;;4.36;100.00;98890.72;5061462;28;20439;-49
2024/01/01 02:52:56;;;;;;;4.75;2.15;;;;;;;4.35;100.00;98891.84;5066977;28;20047;-52
2024/01/01 02:55:24;;;;;;;1.48;0.70;;;;;;;4.34;100.00;98895.75;5066951;28;20044;-49
2024/01/01 02:57:51;;;;;;;4.15;0.70;;;;;;;4.32;100.00;98907.84;5065480;28;20071;-47
2024/01/01 03:02:54;;;;;;;2.42;0.52;;;;;;;4.32;100.00;98920.75;5065552;22;20044;-49
2024/01/01 03:05:25;;;;;;;5.05;0.85;;;;;;;4.31;100.00;98930.91;5084883;28;20043;-47
2024/01/01 03:07:53;;;;;;;2.80;0.60;;;;;;;4.32;100.00;98927.03;5081968;28;20048;-46
2024/01/01 03:10:20;;;;;;;5.50;0.70;;;;;;;4.29;100.00;98930.47;5084129;28;20044;-49
2024/01/01 03:12:47;;;;;;;3.20;2.33;;;;;;;4.29;100.00;98948.81;5086046;28;20047;-47
2024/01/01 03:15:15;;;;;;;5.40;0.60;;;;;;;4.28;100.00;98942.56;5066823;28;20048;-50
2024/01/01 03:17:42;;;;;;;5.05;1.17;;;;;;;4.26;100.00;98939.38;5078664;28;20044;-50
2024/01/01 03:20:10;;;;;;;4.10;1.25;;;;;;;4.26;100.00;98950.31;5085241;28;20534;-48
2024/01/01 03:22:38;;;;;;;8.10;0.98;;;;;;;4.24;100.00;98957.28;5085642;28;20051;-46
2024/01/01 03:25:07;;;;;;;1.45;0.80;;;;;;;4.23;100.00;98962.00;5085554;28;20050;-52
2024/01/01 03:27:35;;;;;;;2.38;0.80;;;;;;;4.21;100.00;98969.75;5085995;28;20044;-48
2024/01/01 03:30:08;;;;;;;2.03;0.90;;;;;;;4.20;100.00;98961.88;5075113;28;20097;-51
2024/01/01 03:32:36;;;;;;;8.25;1.83;;;;;;;4.18;100.00;98973.16;5083967;28;20036;-49
2024/01/01 03:35:04;;;;;;;10.02;1.20;;;;;;;4.16;100.00;98964.50;5089996;28;20071;-53
2024/01/01 03:37:33;;;;;;;3.85;0.70;;;;;;;4.16;100.00;98972.72;5090262;28;20051;-50
2024/01/01 03:40:00;;;;;;;2.72;0.98;;;;;;;4.15;100.00;98990.31;5089563;28;20044;-49
2024/01/01 03:42:28;;;;;;;7.30;1.30;;;;;;;4.12;100.00;98985.53;5090348;28;20047;-50
2024/01/01 03:44:55;;;;;;;3.03;1.60;;;;;;;4.11;100.00;98992.13;5080268;28;20052;-47
2024/01/01 03:47:23;;;;;;;3.45;0.85;;;;;;;4.11;100.00;99000.34;5089639;28;20039;-46
2024/01/01 03:49:53;;;;;;;7.40;0.98;;;;;;;4.12;100.00;98999.22;5089419;28;20047;-46
2024/01/01 03:52:21;;;;;;;3.00;1.20;;;;;;;4.15;100.00;98986.78;5087551;28;20052;-50
2024/01/01 03:54:48;;;;;;;7.30;1.65;;;;;;;4.16;100.00;98983.69;5088398;28;20371;-47
2024/01/01 03:57:16;;;;;;;12.85;1.88;;;;;;;4.17;100.00;98979.81;5089326;28;20051;-50
2024/01/01 03:59:43;;;;;;;4.88;1.33;;;;;;;4.18;100.00;98975.91;5089251;28;20043;-48
2024/01/01 04:02:10;;;;;;;4.35;1.20;;;;;;;4.17;100.00;98979.00;5084230;28;20063;-48
2024/01/01 04:04:43;;;;;;;8.50;2.28;;;;;;;4.17;100.00;98985.28;5087956;28;20056;-54
2024/01/01 04:07:10;;;;;;;4.95;1.00;;;;;;;4.18;100.00;98986.09;5088132;28;20393;-46
2024/01/01 04:09:38;;;;;;;13.73;1.90;;;;;;;4.17;100.00;98989.97;5089193;28;20413;-52
2024/01/01 04:12:05;;;;;;;9.40;1.70;;;;;;;4.16;100.00;98988.34;5088686;28;20371;-47
2024/01/01 04:14:33;;;;;;;18.27;3.50;;;;;;;4.17;100.00;99004.47;5089267;28;20051;-48
2024/01/01 04:17:00;;;;;;;6.65;1.95;;;;;;;4.17;100.00;98995.44;5087830;28;20052;-51
2024/01/01 04:19:27;;;;;;;11.13;1.75;;;;;;;4.17;100.00;99006.38;5065750;28;20039;-50
2024/01/01 04:21:55;;;;;;;6.80;2.20;;;;;;;4.18;100.00;99005.25;5088999;28;20044;-47
2024/01/01 04:24:22;;;;;;;14.07;2.65;;;;;;;4.17;100.00;99015.41;5087517;28;20051;-47
2024/01/01 04:26:50;;;;;;;7.18;1.42;;;;;;;4.17;100.00;99006.38;5088511;28;20047;-48
2024/01/01 04:29:17;;;;;;;6.47;1.48;;;;;;;4.18;100.00;99014.25;5089022;28;20044;-49
2024/01/01 04:31:46;;;;;;;7.45;1.55;;;;;;;4.17;100.00;99009.94;5083186;28;20036;-47
2024/01/01 04:34:13;;;;;;;14.18;2.50;;;;;;;4.15;100.00;99009.50;5088067;28;20055;-48
2024/01/01 04:36:41;;;;;;;8.88;1.88;;;;;;;4.12;100.00;99021.13;5088057;28;20040;-46
2024/01/01 04:39:09;;;;;;;8.50;2.20;;;;;;;4.10;100.00;99017.91;5087775;28;20040;-48
2024/01/01 04:41:36;;;;;;;9.75;1.60;;;;;;;4.10;100.00;99017.13;5088197;28;20051;-46
2024/01/01 04:44:04;;;;;;;12.20;2.15;;;;;;;4.08;100.00;99024.88;5088470;28;20047;-48
2024/01/01 04:46:31;;;;;;;5.70;1.17;;;;;;;4.07;100.00;99031.50;5087661;28;20052;-48
2024/01/01 04:48:58;;;;;;;5.82;1.70;;;;;;;4.04;100.00;99040.41;5086895;28;20051;-49
2024/01/01 04:51:26;;;;;;;10.55;1.20;;;;;;;4.02;100.00;99035.28;5080953;28;20048;-47
2024/01/01 04:53:53;;;;;;;8.00;1.55;;;;;;;4.02;100.00;99048.19;5086743;28;20063;-49
2024/01/01 04:56:23;;;;;;;11.10;1.30;;;;;;;3.99;100.00;99046.13;5087833;28;20059;-50
2024/01/01 04:58:53;;;;;;;3.92;1.33;;;;;;;3.97;100.00;99043.72;5087292;28;20056;-46
2024/01/01 05:01:21;;;;;;;6.28;1.70;;;;;;;3.96;100.00;99044.88;5087290;28;20048;-49
2024/01/01 05:03:48;;;;;;;6.60;1.42;;;;;;;3.95;100.00;99048.72;5088417;28;20048;-46
2024/01/01 05:06:17;;;;;;;7.63;1.48;;;;;;;3.94;100.00;99049.88;5088357;28;20055;-47
2024/01/01 05:08:45;;;;;;;6.78;1.63;;;;;;;3.93;100.00;99045.53;5078225;28;20052;-51
2024/01/01 05:11:12;;;;;;;8.00;1.55;;;;;;;3.92;100.00;99040.44;5087857;28;20047;-48
2024/01/01 05:13:39;;;;;;;6.63;1.17;;;;;;;3.91;100.00;99053.31;5088466;28;20040;-51
2024/01/01 05:16:10;;;;;;;12.15;1.05;;;;;;;3.91;100.00;99047.84;5087538;28;20048;-51
2024/01/01 05:18:37;;;;;;;7.43;1.35;;;;;;;3.90;100.00;99035.28;5086262;28;20375;-52
2024/01/01 05:21:05;;;;;;;5.22;1.08;;;;;;;3.90;100.00;99050.91;5088474;28;20043;-46
2024/01/01 05:23:32;;;;;;;3.92;2.10;;;;;;;3.88;100.00;99048.50;5062908;28;20040;-50
2024/01/01 05:25:59;;;;;;;11.07;1.20;;;;;;;3.88;100.00;99061.41;5086578;28;20047;-47
2024/01/01 05:28:27;;;;;;;7.07;1.60;;;;;;;3.85;100.00;99056.59;5074306;28;20044;-50
2024/01/01 05:30:55;;;;;;;1.20;0.52;;;;;;;3.83;100.00;99056.97;5087298;28;20056;-48
2024/01/01 05:33:23;;;;;;;3.50;2.13;;;;;;;3.81;100.00;99058.44;5088110;28;20047;-46
2024/01/01 05:35:50;;;;;;;7.00;1.05;;;;;;;3.79;100.00;99061.50;5054355;28;20052;-52
2024/01/01 05:38:19;;;;;;;6.60;0.80;;;;;;;3.78;100.00;99070.88;5087095;28;20398;-51
2024/01/01 05:40:46;;;;;;;3.75;1.17;;;;;;;3.77;100.00;99052.03;5087441;28;20052;-51
2024/01/01 05:43:14;;;;;;;14.43;3.13;;;;;;;3.75;100.00;99046.91;5084896;28;20048;-47
2024/01/01 05:45:41;;;;;;;10.95;1.75;;;;;;;3.75;100.00;99048.84;5087427;28;20052;-49
2024/01/01 05:48:08;;;;;;;3.00;1.55;;;;;;;3.73;100.00;99051.94;5087181;28;20587;-49
2024/01/01 05:50:52;;;;;;;5.63;0.95;;;;;;;3.72;100.00;99050.34;5085423;28;20044;-47
2024/01/01 05:53:20;;;;;;;9.13;0.93;;;;;;;3.73;100.00;99056.59;5085912;28;20043;-47
2024/01/01 05:55:47;;;;;;;12.32;1.67;;;;;;;3.70;100.00;99049.88;5086942;28;20044;-48
2024/01/01 05:58:14;;;;;;;14.35;1.33;;;;;;;3.69;100.00;99053.75;5087109;28;20040;-46
2024/01/01 06:00:42;;;;;;;9.52;1.45;;;;;;;3.69;100.00;99051.81;5085168;28;20040;-46
2024/01/01 06:03:09;;;;;;;6.82;1.50;;;;;;;3.68;100.00;99055.69;5087107;28;20044;-48
2024/01/01 06:05:36;;;;;;;6.13;1.13;;;;;;;3.67;100.00;99056.84;5086908;28;20040;-50
2024/01/01 06:08:04;;;;;;;7.68;1.38;;;;;;;3.64;100.00;99053.97;5086854;28;20405;-49
2024/01/01 06:10:32;;;;;;;10.30;1.30;;;;;;;3.63;100.00;99060.56;5086173;28;20058;-46
2024/01/01 06:13:01;;;;;;;10.35;1.08;;;;;;;3.62;100.00;99054.31;5087007;28;20036;-47
2024/01/01 06:15:29;;;;;;;7.82;2.65;;;;;;;3.62;100.00;99061.72;5075411;28;20051;-50
2024/01/01 06:17:56;;;;;;;5.75;1.10;;;;;;;3.63;100.00;99068.78;5086346;28;20552;-50
2024/01/01 06:20:24;;;;;;;7.68;2.33;;;;;;;3.65;100.00;99072.00;5086729;28;20048;-47
2024/01/01 06:22:51;;;;;;;14.18;1.67;;;;;;;3.66;100.00;99081.78;5087014;28;20051;-48
2024/01/01 06:25:19;;;;;;;4.55;1.42;;;;;;;3.66;100.00;99081.78;5086580;28;20048;-50
2024/01/01 06:27:49;;;;;;;8.70;2.40;;;;;;;3.68;100.00;99090.44;5085924;28;20131;-47
2024/01/01 06:30:17;;;;;;;9.07;1.17;;;;;;;3.68;100.00;99088.50;5060876;28;20052;-50
2024/01/01 06:32:44;;;;;;;3.17;1.17;;;;;;;3.72;100.00;99094.13;5087168;28;20055;-53
2024/01/01 06:35:12;;;;;;;12.40;1.45;;;;;;;3.73;100.00;99095.72;5086730;28;20052;-47
2024/01/01 06:37:39;;;;;;;6.82;3.38;;;;;;;3.76;100.00;99100.50;5086532;28;20028;-48
2024/01/01 06:40:07;;;;;;;7.13;1.48;;;;;;;3.75;100.00;99095.38;5086335;28;20052;-49
2024/01/01 06:42:35;;;;;;;9.43;1.42;;;;;;;3.74;100.00;99108.25;5086163;28;20048;-46
2024/01/01 06:45:06;;;;;;;7.35;1.13;;;;;;;3.73;100.00;99106.69;5086032;28;20456;-48
2024/01/01 06:47:34;;;;;;;11.52;1.58;;;;;;;3.72;100.00;99107.81;5086754;28;20150;-49
2024/01/01 06:50:01;;;;;;;9.77;2.15;;;;;;;3.72;100.00;99109.72;5086018;28;20040;-46
2024/01/01 06:52:29;;;;;;;7.50;1.75;;;;;;;3.72;100.00;99105.06;5086584;28;20063;-46
2024/01/01 06:54:56;;;;;;;8.23;1.02;;;;;;;3.73;100.00;99101.19;5086062;28;20444;-49
2024/01/01 06:57:23;;;;;;;16.80;1.63;;;;;;;3.72;100.00;99104.25;5084530;28;20040;-49
2024/01/01 06:59:51;;;;;;;7.78;2.30;;;;;;;3.73;100.00;99094.94;5086611;28;20044;-51
2024/01/01 07:02:18;;;;;;;10.57;1.40;;;;;;;3.74;100.00;99097.31;5086088;28;20063;-46
2024/01/01 07:04:46;;;;;;;8.75;1.80;;;;;;;3.74;100.00;99099.25;5088306;28;20048;-51
2024/01/01 07:07:14;;;;;;;7.35;2.05;;;;;;;3.72;100.00;99094.13;5086198;28;20056;-49
2024/01/01 07:09:42;;;;;;;8.65;1.20;;;;;;;3.72;100.00;99094.13;5089256;28;20040;-47
2024/01/01 07:12:24;;;;;;;11.27;2.35;;;;;;;3.70;100.00;99104.63;5089446;28;20059;-46
2024/01/01 07:14:52;;;;;;;5.50;1.60;;;;;;;3.71;100.00;99097.22;5085116;28;20043;-48
2024/01/01 07:17:20;;;;;;;16.27;1.80;;;;;;;3.69;100.00;99094.78;5089196;28;20054;-51
2024/01/01 07:19:48;;;;;;;7.40;1.38;;;;;;;3.67;100.00;99092.41;5086070;28;20051;-48
2024/01/01 07:22:15;;;;;;;11.15;1.73;;;;;;;3.65;100.00;99094.66;5089158;28;20048;-46
2024/01/01 07:24:42;;;;;;;5.28;1.20;;;;;;;3.65;100.00;99102.09;5089801;28;20071;-48
2024/01/01 07:27:11;;;;;;;8.68;2.28;;;;;;;3.62;100.00;99087.16;5089224;28;20044;-49
2024/01/01 07:29:40;;;;;;;6.82;1.38;;;;;;;3.62;100.00;99100.03;5090352;28;20044;-47
2024/01/01 07:32:07;;;;;;;6.93;1.30;;;;;;;3.62;100.00;99100.03;5089669;28;20055;-48
2024/01/01 07:34:35;;;;;;;8.32;1.10;;;;;;;3.60;100.00;99102.31;5062881;28;20431;-46
2024/01/01 07:37:04;;;;;;;11.23;1.50;;;;;;;3.60;100.00;99096.84;5088658;28;20055;-47
2024/01/01 07:39:32;;;;;;;8.55;1.83;;;;;;;3.59;100.00;99103.44;5089160;28;20040;-52
2024/01/01 07:41:59;;;;;;;7.97;1.52;;;;;;;3.58;100.00;99099.09;5086433;28;20051;-48
2024/01/01 07:44:27;;;;;;;12.25;1.85;;;;;;;3.59;100.00;99108.91;5089314;28;20051;-46
2024/01/01 07:46:58;;;;;;;9.73;1.33;;;;;;;3.58;100.00;99110.03;5088384;28;20048;-50
2024/01/01 07:49:25;;;;;;;5.90;1.60;;;;;;;3.58;100.00;99110.03;5085450;28;20059;-47
2024/01/01 07:51:53;;;;;;;11.15;2.47;;;;;;;3.57;100.00;99111.19;5088913;28;20044;-46
2024/01/01 07:54:20;;;;;;;19.15;2.75;;;;;;;3.57;100.00;99111.19;5089085;28;20070;-47
2024/01/01 07:56:49;;;;;;;11.30;1.60;;;;;;;3.58;100.00;99112.78;5087670;28;20315;-47
2024/01/01 07:59:16;;;;;;;4.57;1.33;;;;;;;3.58;100.00;99118.25;5088735;28;20051;-47
2024/01/01 08:01:44;;;;;;;5.55;1.92;;;;;;;3.57;100.00;99130.34;5088915;28;20043;-48
2024/01/01 08:04:12;;;;;;;14.98;1.95;;;;;;;3.55;100.00;99107.97;5082826;28;20091;-48
2024/01/01 08:06:39;;;;;;;11.73;1.65;;;;;;;3.55;100.00;99110.72;5086576;28;20044;-46
2024/01/01 08:09:07;;;;;;;15.70;2.63;;;;;;;3.53;100.00;99113.00;5089236;28;20048;-47
2024/01/01 08:11:34;;;;;;;21.55;2.95;;;;;;;3.53;100.00;99113.81;5088652;28;20481;-46
2024/01/01 08:14:01;;;;;;;7.10;1.70;;;;;;;3.52;100.00;99111.41;5088368;28;20056;-47
2024/01/01 08:16:34;;;;;;;10.90;2.03;;;;;;;3.50;100.00;99114.47;5084422;28;20040;-48
2024/01/01 08:19:01;;;;;;;9.45;2.78;;;;;;;3.46;100.00;99105.38;5089365;28;20059;-46
2024/01/01 08:21:29;;;;;;;15.25;2.65;;;;;;;3.44;100.00;99104.88;5088934;28;20413;-48
2024/01/01 08:23:56;;;;;;;14.50;1.77;;;;;;;3.43;100.00;99110.69;5088298;28;20052;-46
2024/01/01 08:26:23;;;;;;;18.70;2.20;;;;;;;3.41;100.00;99104.78;5084229;28;20382;-52
2024/01/01 08:28:54;;;;;;;9.90;2.03;;;;;;;3.39;100.00;99107.81;5087457;28;20053;-51
2024/01/01 08:31:21;;;;;;;10.23;1.95;;;;;;;3.38;100.00;99110.91;5088061;28;20413;-47
2024/01/01 08:33:49;;;;;;;7.80;1.55;;;;;;;3.37;100.00;99117.50;5088711;28;20048;-47
2024/01/01 08:36:19;;;;;;;9.35;2.08;;;;;;;3.34;100.00;99112.72;5084726;28;20051;-46
2024/01/01 08:38:47;;;;;;;11.55;1.80;;;;;;;3.33;100.00;99116.59;5088475;28;20040;-48
2024/01/01 08:41:14;;;;;;;10.45;1.58;;;;;;;3.31;100.00;99127.09;5088162;28;20047;-48
2024/01/01 08:43:56;;;;;;;8.80;2.00;;;;;;;3.29;100.00;99126.59;5088969;28;20390;-52
2024/01/01 08:46:25;;;;;;;18.10;3.00;;;;;;;3.28;100.00;99122.28;5087962;28;20063;-48
2024/01/01 08:48:53;;;;;;;7.45;1.75;;;;;;;3.27;100.00;99137.06;5079959;28;20054;-47
2024/01/01 08:51:20;;;;;;;5.55;1.73;;;;;;;3.26;100.00;99140.94;5085775;28;20044;-50
2024/01/01 08:53:48;;;;;;;8.90;2.75;;;;;;;3.26;100.00;99135.47;5086932;28;20047;-50
2024/01/01 08:56:15;;;;;;;10.30;2.75;;;;;;;3.25;100.00;99133.88;5084829;28;21848;-47
2024/01/01 08:58:43;;;;;;;12.15;3.47;;;;;;;3.26;100.00;99135.47;5086200;28;20401;-48
2024/01/01 09:01:10;;;;;;;11.65;2.53;;;;;;;3.24;100.00;99137.75;5086287;28;20052;-48
2024/01/01 09:03:38;;;;;;;10.70;2.25;;;;;;;3.22;100.00;99132.63;5087278;28;20056;-46
2024/01/01 09:06:06;;;;;;;6.05;2.33;;;;;;;3.22;100.00;99134.56;5087287;28;20039;-48
2024/01/01 09:08:33;;;;;;;9.85;2.22;;;;;;;3.21;100.00;99127.47;5087690;28;20071;-46
2024/01/01 09:11:02;;;;;;;8.73;1.85;;;;;;;3.20;100.00;99134.91;5087468;28;20047;-51
2024/01/01 09:13:30;;;;;;;12.82;2.25;;;;;;;3.23;100.00;99141.63;5087317;28;20055;-52
2024/01/01 09:15:57;;;;;;;18.40;2.83;;;;;;;3.22;100.00;99143.56;5066473;28;20047;-53
2024/01/01 09:18:24;;;;;;;8.77;2.03;;;;;;;3.23;100.00;99142.41;5082442;28;20041;-50
2024/01/01 09:20:52;;;;;;;16.40;2.75;;;;;;;3.27;100.00;99142.56;5084718;28;20051;-45
2024/01/01 09:23:26;;;;;;;13.15;3.45;;;;;;;3.30;100.00;99133.69;5086604;28;20040;-51
2024/01/01 09:25:54;;;;;;;12.30;2.03;;;;;;;3.32;100.00;99134.94;5086195;28;20056;-48
2024/01/01 09:28:22;;;;;;;8.20;2.05;;;;;;;3.34;100.00;99149.06;5074613;28;20405;-47
2024/01/01 09:30:49;;;;;;;8.73;2.22;;;;;;;3.36;100.00;99146.78;5085122;28;20059;-45
2024/01/01 09:33:16;;;;;;;12.93;2.28;;;;;;;3.40;100.00;99146.94;5087807;28;20056;-47
2024/01/01 09:35:46;;;;;;;17.63;2.20;;;;;;;3.44;100.00;99142.41;5069560;28;20059;-51
2024/01/01 09:38:14;;;;;;;13.45;2.55;;;;;;;3.50;100.00;99141.03;5086496;28;20054;-45
2024/01/01 09:40:44;;;;;;;13.15;2.10;;;;;;;3.56;100.00;99147.91;5086261;28;20036;-46
2024/01/01 09:43:16;;;;;;;8.88;2.92;;;;;;;3.61;100.00;99147.69;5087872;28;20052;-49
2024/01/01 09:45:47;;;;;;;11.77;1.88;;;;;;;3.66;100.00;99145.53;5086873;28;20397;-46
2024/01/01 09:48:15;;;;;;;10.02;2.90;;;;;;;3.71;100.00;99147.25;5082546;28;20044;-47
2024/01/01 09:50:48;;;;;;;11.40;1.95;;;;;;;3.75;100.00;99136.44;5087215;28;20044;-47
2024/01/01 09:53:17;;;;;;;12.43;1.95;;;;;;;3.78;100.00;99131.09;5084541;28;20043;-46
2024/01/01 09:55:52;;;;;;;13.68;3.35;;;;;;;3.80;100.00;99138.94;5084684;28;20040;-48
2024/01/01 09:58:20;;;;;;;6.63;2.28;;;;;;;3.81;100.00;99132.34;5086827;28;20044;-49
2024/01/01 10:00:48;;;;;;;11.70;2.08;;;;;;;3.82;100.00;99118.31;5086680;28;20048;-45
2024/01/01 10:03:15;;;;;;;9.55;1.85;;;;;;;3.84;100.00;99124.22;5086937;28;20048;-50
2024/01/01 10:05:48;;;;;;;11.75;2.30;;;;;;;3.87;100.00;99137.25;5079490;28;20094;-46
2024/01/01 10:08:16;;;;;;;13.65;2.00;;;;;;;3.90;100.00;99139.31;5081767;28;20044;-46
2024/01/01 10:10:44;;;;;;;15.85;3.13;;;;;;;3.93;100.00;99133.16;5086944;28;20036;-49
2024/01/01 10:13:13;;;;;;;12.20;2.72;;;;;;;3.96;100.00;99124.25;5083176;28;20409;-46
2024/01/01 10:15:42;;;;;;;9.43;3.45;;;;;;;3.98;100.00;99124.72;5082335;28;20370;-46
2024/01/01 10:18:12;;;;;;;18.25;3.45;;;;;;;3.98;100.00;99130.19;5086932;28;20405;-53
2024/01/01 10:20:44;;;;;;;13.93;3.85;;;;;;;4.01;100.00;99128.72;5087130;28;20066;-48
2024/01/01 10:23:20;;;;;;;12.82;2.33;;;;;;;4.02;100.00;99130.31;5073344;28;20052;-45
2024/01/01 10:26:00;;;;;;;11.98;2.17;;;;;;;4.04;100.00;99128.84;5086482;28;20055;-50
2024/01/01 10:28:30;;;;;;;10.35;2.85;;;;;;;4.05;100.00;99129.63;5086263;28;20416;-51
2024/01/01 10:31:00;;;;;;;12.82;3.13;;;;;;;4.08;100.00;99129.75;5068638;28;20044;-45
2024/01/01 10:33:29;;;;;;;17.75;6.00;;;;;;;4.11;100.00;99126.31;5076629;28;20040;-46
2024/01/01 10:35:59;;;;;;;19.92;5.10;;;;;;;4.15;100.00;99132.72;5076428;28;20067;-48
2024/01/01 10:38:27;;;;;;;14.63;4.05;;;;;;;4.18;100.00;99129.28;5086842;28;20067;-49
2024/01/01 10:40:56;;;;;;;13.52;4.20;;;;;;;4.21;100.00;99128.59;5089154;28;20044;-46
2024/01/01 10:43:28;;;;;;;18.48;4.70;;;;;;;4.22;100.00;99116.50;5080033;28;20043;-48
2024/01/01 10:46:03;;;;;;;19.07;4.30;;;;;;;4.24;100.00;99106.00;5089865;28;20265;-48
2024/01/01 10:48:37;;;;;;;17.80;4.50;;;;;;;4.27;100.00;99105.31;5090501;28;20043;-49
2024/01/01 10:51:24;;;;;;;16.75;6.85;;;;;;;4.31;100.00;99103.47;5087152;28;20040;-50
2024/01/01 10:54:09;;;;;;;13.88;3.30;;;;;;;4.35;100.00;99097.31;5087539;28;20044;-50
2024/01/01 10:57:09;;;;;;;8.75;2.72;;;;;;;4.37;100.00;99092.31;5083055;28;20465;-48
2024/01/01 10:59:49;;;;;;;13.60;2.78;;;;;;;4.40;100.00;99097.09;5080042;28;20047;-46
2024/01/01 11:02:17;;;;;;;9.43;2.47;;;;;;;4.41;100.00;99088.53;5089075;28;20048;-50
2024/01/01 11:04:48;;;;;;;16.48;3.08;;;;;;;4.44;100.00;99076.09;5089306;28;20425;-46
2024/01/01 11:07:15;;;;;;;11.60;3.47;;;;;;;4.45;100.00;99073.00;5084590;28;20283;-48
2024/01/01 11:09:48;;;;;;;11.23;4.22;;;;;;;4.47;100.00;99061.69;5088550;28;20111;-48
2024/01/01 11:12:32;;;;;;;;;;;;;;;4.49;100.00;99073.91;5085052;28;20059;-47
2024/01/01 11:15:38;;;;;;;17.85;6.57;;;;;;;4.53;100.00;99065.78;5089424;28;19931;-46
2024/01/01 11:18:12;;;;;;;21.50;4.47;;;;;;;4.55;100.00;99045.13;5071354;28;20048;-48
2024/01/01 11:20:56;;;;;;;12.00;3.33;;;;;;;4.59;100.00;99042.47;5090524;28;20069;-49
2024/01/01 11:23:44;;;;;;;19.73;3.50;;;;;;;4.63;100.00;99043.41;5075779;28;20134;-50
2024/01/01 11:26:35;;;;;;;12.60;2.85;;;;;;;4.67;100.00;99030.56;5090055;28;20559;-48
2024/01/01 11:29:18;;;;;;;12.05;2.28;;;;;;;4.69;100.00;99025.53;5090358;28;20059;-47
2024/01/01 11:31:45;;;;;;;11.02;2.50;;;;;;;4.72;100.00;99022.09;5065057;28;20058;-48
2024/01/01 11:34:18;;;;;;;13.77;2.63;;;;;;;4.74;100.00;99022.53;5085492;28;20413;-47
2024/01/01 11:36:54;;;;;;;6.82;2.72;;;;;;;4.79;100.00;99016.84;5090664;28;20486;-50
2024/01/01 11:39:24;;;;;;;13.93;2.42;;;;;;;4.81;100.00;99014.53;5089880;28;20036;-48
2024/01/01 11:41:52;;;;;;;9.93;2.60;;;;;;;4.86;100.00;99014.28;5071968;28;20052;-49